Time;durP1;ratioP1;P1;durP2;ratioP2;P2;SDS_P1;SDS_P2;PMS_P1;PMS_P2;Temp;Humidity;BMP_temperature;BMP_pressure;BME280_temperature;BME280_humidity;BME280_pressure;Samples;Min_cycle;Max_cycle;Signal;HPM_P1;HPM_P2
2022/01/27 00:05:19;;;;;;;39.63;22.58;;;5.40;99.90;;;;;;5079178;28;20047;-83
2022/01/27 00:08:03;;;;;;;40.75;22.75;;;5.40;99.90;;;;;;5079065;28;20048;-83
2022/01/27 00:12:55;;;;;;;36.95;22.65;;;5.40;99.90;;;;;;5076067;28;20388;-84
2022/01/27 00:15:28;;;;;;;42.72;23.20;;;5.50;99.90;;;;;;5094076;28;20031;-83
2022/01/27 00:17:59;;;;;;;37.40;20.55;;;5.50;99.90;;;;;;5060354;28;20036;-84
2022/01/27 00:20:25;;;;;;;40.63;21.90;;;5.50;99.90;;;;;;5076329;28;20545;-84
2022/01/27 00:22:51;;;;;;;35.05;21.45;;;5.50;99.90;;;;;;5075987;28;20032;-84
2022/01/27 00:25:16;;;;;;;32.22;20.08;;;5.40;99.90;;;;;;5075772;28;20043;-83
2022/01/27 00:27:42;;;;;;;34.30;20.67;;;5.50;99.90;;;;;;5075883;28;20036;-83
2022/01/27 00:30:10;;;;;;;39.00;20.52;;;5.60;99.90;;;;;;5075302;28;20427;-83
2022/01/27 00:32:36;;;;;;;32.08;17.95;;;5.50;99.90;;;;;;5058802;28;20031;-83
2022/01/27 00:35:03;;;;;;;34.38;20.33;;;5.50;99.90;;;;;;5058736;28;20032;-83
2022/01/27 00:37:29;;;;;;;33.95;21.08;;;5.50;99.90;;;;;;5058529;28;20369;-84
2022/01/27 00:39:55;;;;;;;29.77;18.27;;;5.50;99.90;;;;;;5075322;28;20225;-83
2022/01/27 00:42:21;;;;;;;28.38;17.70;;;5.50;99.90;;;;;;5058918;28;20050;-83
2022/01/27 00:44:47;;;;;;;31.63;19.80;;;5.50;99.90;;;;;;5075219;28;20392;-83
2022/01/27 00:47:12;;;;;;;36.05;20.70;;;5.50;99.90;;;;;;5075867;28;20024;-83
2022/01/27 00:49:38;;;;;;;33.10;19.27;;;5.60;99.90;;;;;;5093156;28;20028;-83
2022/01/27 00:52:09;;;;;;;32.30;18.25;;;5.50;99.90;;;;;;5058627;28;20028;-83
2022/01/27 00:54:35;;;;;;;30.85;18.08;;;5.60;99.90;;;;;;5093682;28;20417;-84
2022/01/27 00:57:14;;;;;;;30.88;18.65;;;5.60;99.90;;;;;;5075177;28;20134;-83
2022/01/27 00:59:53;;;;;;;33.33;19.60;;;5.60;99.90;;;;;;5060432;28;20024;-83
2022/01/27 01:05:12;;;;;;;34.30;19.63;;;5.60;99.90;;;;;;5076853;28;20044;-84
2022/01/27 01:07:41;;;;;;;31.90;18.95;;;5.60;99.90;;;;;;5093313;28;20089;-83
2022/01/27 01:13:45;;;;;;;34.80;20.60;;;5.60;99.90;;;;;;5078223;28;20044;-84
2022/01/27 01:15:41;;;;;;;32.40;19.55;;;5.60;99.90;;;;;;5076184;28;20039;-83
2022/01/27 01:31:42;;;;;;;36.75;21.10;;;5.50;99.90;;;;;;5077855;28;20043;-83
2022/01/27 01:34:20;;;;;;;33.97;19.48;;;5.50;99.90;;;;;;5080919;28;20027;-84
2022/01/27 01:36:55;;;;;;;34.70;20.15;;;5.50;99.90;;;;;;5078642;28;20070;-83
2022/01/27 01:39:25;;;;;;;32.17;19.38;;;5.60;99.90;;;;;;5078992;28;20365;-83
2022/01/27 01:41:52;;;;;;;36.63;21.13;;;5.50;99.90;;;;;;5096745;28;20040;-83
2022/01/27 01:44:19;;;;;;;35.17;19.90;;;5.50;99.90;;;;;;5078685;28;20032;-84
2022/01/27 01:46:44;;;;;;;36.50;19.67;;;5.50;99.90;;;;;;5062006;28;20032;-83
2022/01/27 01:49:10;;;;;;;37.50;23.17;;;5.50;99.90;;;;;;5061994;28;20426;-83
2022/01/27 01:51:37;;;;;;;35.45;20.65;;;5.50;99.90;;;;;;5096348;28;20024;-83
2022/01/27 01:54:04;;;;;;;38.22;21.13;;;5.50;99.90;;;;;;5078348;28;20039;-83
2022/01/27 01:56:30;;;;;;;35.00;19.50;;;5.60;99.90;;;;;;5078525;28;20043;-83
2022/01/27 01:58:56;;;;;;;37.63;22.17;;;5.50;99.90;;;;;;5061585;28;20032;-83
2022/01/27 02:01:22;;;;;;;33.92;20.27;;;5.50;99.90;;;;;;5078509;28;20472;-83
2022/01/27 02:03:48;;;;;;;34.55;19.63;;;5.50;99.90;;;;;;5078073;28;20024;-84
2022/01/27 02:06:26;;;;;;;34.28;21.15;;;5.50;99.90;;;;;;5070623;28;20028;-83
2022/01/27 02:19:39;;;;;;;32.20;20.30;;;5.50;99.90;;;;;;5060649;28;20121;-83
2022/01/27 02:22:06;;;;;;;31.70;17.73;;;5.50;99.90;;;;;;5041643;28;20056;-83
2022/01/27 02:24:35;;;;;;;38.75;21.60;;;5.50;99.90;;;;;;5058205;28;20039;-83
2022/01/27 02:27:02;;;;;;;34.60;18.75;;;5.60;99.90;;;;;;5057927;28;20089;-83
2022/01/27 02:29:28;;;;;;;35.30;19.20;;;5.50;99.90;;;;;;5057789;28;20020;-83
2022/01/27 02:31:57;;;;;;;37.67;20.67;;;5.50;99.90;;;;;;5057741;28;20435;-83
2022/01/27 02:34:24;;;;;;;35.03;20.67;;;5.60;99.90;;;;;;5057781;28;20052;-83
2022/01/27 02:36:49;;;;;;;33.63;19.00;;;5.50;99.90;;;;;;5041175;28;20028;-83
2022/01/27 02:39:16;;;;;;;35.75;21.30;;;5.60;99.90;;;;;;5058031;28;20366;-83
2022/01/27 02:41:46;;;;;;;31.92;18.95;;;5.60;99.90;;;;;;5040907;28;20473;-84
2022/01/27 02:44:28;;;;;;;35.42;21.02;;;5.50;99.90;;;;;;5061157;28;20028;-83
2022/01/27 02:46:53;;;;;;;32.60;19.95;;;5.60;99.90;;;;;;5088661;28;20029;-83
2022/01/27 02:49:19;;;;;;;35.35;19.42;;;5.50;99.90;;;;;;5054732;28;20024;-83
2022/01/27 02:51:45;;;;;;;32.10;19.23;;;5.50;99.90;;;;;;5071166;28;20055;-83
2022/01/27 02:54:10;;;;;;;33.15;19.65;;;5.60;99.90;;;;;;5055360;28;20084;-83
2022/01/27 02:56:43;;;;;;;35.45;19.90;;;5.60;99.90;;;;;;5085631;28;20032;-84
2022/01/27 02:59:09;;;;;;;40.20;21.17;;;5.60;99.90;;;;;;5057520;28;20029;-84
2022/01/27 03:01:35;;;;;;;35.55;18.98;;;5.60;99.90;;;;;;5057421;28;20479;-83
2022/01/27 03:04:01;;;;;;;32.63;19.25;;;5.60;99.90;;;;;;5024064;28;20140;-83
2022/01/27 03:06:26;;;;;;;35.53;21.23;;;5.60;99.90;;;;;;5040698;28;20028;-84
2022/01/27 03:08:52;;;;;;;36.38;19.00;;;5.60;99.90;;;;;;5057427;28;20078;-83
2022/01/27 03:11:38;;;;;;;35.38;21.00;;;5.70;99.90;;;;;;5056923;28;20032;-83
2022/01/27 03:14:04;;;;;;;33.65;19.60;;;5.60;99.90;;;;;;5056892;28;20028;-83
2022/01/27 03:16:30;;;;;;;34.33;18.63;;;5.60;99.90;;;;;;5040263;28;20032;-83
2022/01/27 03:18:56;;;;;;;35.85;19.73;;;5.70;99.90;;;;;;5036192;28;20053;-84
2022/01/27 03:21:21;;;;;;;34.72;19.35;;;5.70;99.90;;;;;;5053045;28;20090;-84
2022/01/27 03:23:47;;;;;;;31.30;19.45;;;5.70;99.90;;;;;;5071938;28;20021;-83
2022/01/27 03:26:14;;;;;;;38.80;20.17;;;5.70;99.90;;;;;;5073465;28;20033;-83
2022/01/27 03:28:39;;;;;;;32.50;19.45;;;5.70;99.90;;;;;;5073193;28;20461;-83
2022/01/27 03:31:05;;;;;;;31.73;19.15;;;5.70;99.90;;;;;;5056547;28;20028;-83
2022/01/27 03:33:31;;;;;;;31.63;19.85;;;5.70;99.90;;;;;;5073383;28;20052;-83
2022/01/27 03:35:57;;;;;;;34.45;20.05;;;5.70;99.90;;;;;;5056390;28;20561;-83
2022/01/27 03:38:22;;;;;;;38.95;22.35;;;5.80;99.90;;;;;;5073047;28;20081;-83
2022/01/27 03:40:48;;;;;;;32.25;18.27;;;5.70;99.90;;;;;;5073109;28;20059;-83
2022/01/27 03:43:14;;;;;;;32.70;19.15;;;5.70;99.90;;;;;;5055766;28;20074;-83
2022/01/27 03:45:39;;;;;;;36.28;21.55;;;5.70;99.90;;;;;;5056520;28;20025;-83
2022/01/27 03:48:06;;;;;;;34.50;19.75;;;5.70;99.90;;;;;;5074112;28;20111;-85
2022/01/27 03:50:32;;;;;;;34.22;21.25;;;5.70;99.90;;;;;;5073175;28;20036;-83
2022/01/27 03:52:58;;;;;;;31.17;19.08;;;5.70;99.90;;;;;;5073966;28;20166;-85
2022/01/27 03:55:25;;;;;;;32.70;19.95;;;5.80;99.90;;;;;;5072580;28;20060;-82
2022/01/27 03:57:50;;;;;;;33.60;19.67;;;5.80;99.90;;;;;;5074417;28;20469;-83
2022/01/27 04:00:16;;;;;;;34.22;21.42;;;5.80;99.90;;;;;;5072808;28;20033;-82
2022/01/27 04:02:55;;;;;;;36.97;20.55;;;5.80;99.90;;;;;;5056426;28;20020;-83
2022/01/27 04:05:21;;;;;;;34.28;18.88;;;5.80;99.90;;;;;;5073032;28;20099;-83
2022/01/27 04:07:47;;;;;;;29.38;18.13;;;5.70;99.90;;;;;;5056367;28;20029;-84
2022/01/27 04:10:13;;;;;;;32.00;19.50;;;5.70;99.90;;;;;;5074123;28;20407;-83
2022/01/27 04:12:39;;;;;;;32.05;19.13;;;5.70;99.90;;;;;;5055639;28;20036;-83
2022/01/27 04:15:05;;;;;;;32.10;20.02;;;5.70;99.90;;;;;;5055739;28;20021;-83
2022/01/27 04:17:31;;;;;;;33.17;19.17;;;5.70;99.90;;;;;;5055820;28;20044;-83
2022/01/27 04:19:56;;;;;;;32.17;17.73;;;5.70;99.90;;;;;;5055404;28;20052;-83
2022/01/27 04:22:22;;;;;;;32.55;19.38;;;5.70;99.90;;;;;;5072569;28;20033;-83
2022/01/27 04:24:48;;;;;;;34.42;19.63;;;5.70;99.90;;;;;;5055791;28;20025;-83
2022/01/27 04:27:19;;;;;;;30.90;17.67;;;5.70;99.90;;;;;;5073351;28;20032;-83
2022/01/27 04:29:45;;;;;;;32.33;18.90;;;5.70;99.90;;;;;;5072268;28;20082;-83
2022/01/27 04:32:12;;;;;;;31.77;19.10;;;5.80;99.90;;;;;;5055410;28;20037;-83
2022/01/27 04:34:41;;;;;;;30.42;17.80;;;5.70;99.90;;;;;;5072334;28;20050;-83
2022/01/27 04:37:09;;;;;;;35.35;19.45;;;5.70;99.90;;;;;;5055608;28;20029;-83
2022/01/27 04:39:50;;;;;;;36.00;18.83;;;5.80;99.90;;;;;;5072495;28;20021;-83
2022/01/27 04:42:27;;;;;;;30.95;17.13;;;5.80;99.90;;;;;;5057360;28;20062;-83
2022/01/27 04:44:59;;;;;;;31.25;17.38;;;5.80;99.90;;;;;;5072186;28;20483;-83
2022/01/27 04:47:32;;;;;;;30.35;17.10;;;5.80;99.90;;;;;;5056416;28;20064;-83
2022/01/27 04:49:58;;;;;;;32.72;17.95;;;5.80;99.90;;;;;;5056212;28;20548;-83
2022/01/27 04:52:26;;;;;;;30.98;18.23;;;5.80;99.90;;;;;;5072185;28;20032;-83
2022/01/27 04:55:02;;;;;;;29.27;17.92;;;5.80;99.90;;;;;;5055681;28;20028;-90
2022/01/27 04:57:29;;;;;;;31.08;17.48;;;5.80;99.90;;;;;;5072326;28;20384;-83
2022/01/27 04:59:55;;;;;;;31.65;18.65;;;5.80;99.90;;;;;;5073453;28;20453;-84
2022/01/27 05:02:33;;;;;;;30.13;17.70;;;5.80;99.90;;;;;;5055563;28;20038;-83
2022/01/27 05:04:58;;;;;;;29.55;17.77;;;5.80;99.90;;;;;;5072780;28;20043;-83
2022/01/27 05:07:24;;;;;;;31.48;17.20;;;5.80;99.90;;;;;;5055863;28;20544;-84
2022/01/27 05:09:56;;;;;;;28.75;16.73;;;5.90;99.90;;;;;;5059480;28;20113;-83
2022/01/27 05:12:38;;;;;;;32.78;16.83;;;5.80;99.90;;;;;;5060196;28;20438;-83
2022/01/27 05:15:04;;;;;;;29.67;17.55;;;5.90;99.90;;;;;;5076255;28;20032;-84
2022/01/27 05:17:30;;;;;;;29.23;16.58;;;5.90;99.90;;;;;;5076249;28;20037;-83
2022/01/27 05:19:55;;;;;;;27.40;16.60;;;5.90;99.90;;;;;;5088348;28;20044;-84
2022/01/27 05:22:21;;;;;;;32.45;17.00;;;5.90;99.90;;;;;;5062441;28;20495;-83
2022/01/27 05:24:47;;;;;;;31.75;16.20;;;5.90;99.90;;;;;;5062449;28;20020;-83
2022/01/27 05:27:12;;;;;;;33.58;18.42;;;6.00;99.90;;;;;;5061868;28;20476;-84
2022/01/27 05:29:38;;;;;;;27.20;15.38;;;5.90;99.90;;;;;;5062406;28;20028;-83
2022/01/27 05:32:03;;;;;;;31.70;16.25;;;6.00;99.90;;;;;;5061664;28;20021;-82
2022/01/27 05:34:29;;;;;;;27.83;16.92;;;6.00;99.90;;;;;;5062464;28;20024;-83
2022/01/27 05:36:55;;;;;;;33.50;16.67;;;6.00;99.90;;;;;;5062335;28;20035;-83
2022/01/27 05:39:20;;;;;;;27.17;15.02;;;6.00;99.90;;;;;;5061823;28;20063;-83
2022/01/27 05:41:46;;;;;;;31.80;16.23;;;6.00;99.90;;;;;;5061799;28;20026;-83
2022/01/27 05:44:11;;;;;;;29.13;16.02;;;6.00;99.90;;;;;;5061955;28;20024;-83
2022/01/27 05:46:37;;;;;;;28.63;16.45;;;6.10;99.90;;;;;;5078872;28;20426;-83
2022/01/27 05:49:03;;;;;;;32.83;17.05;;;6.00;99.90;;;;;;5078471;28;20543;-83
2022/01/27 05:51:29;;;;;;;29.92;17.15;;;6.00;99.90;;;;;;5078607;28;20102;-82
2022/01/27 05:53:54;;;;;;;26.30;15.73;;;6.10;99.90;;;;;;5078952;28;20131;-83
2022/01/27 05:56:20;;;;;;;29.90;15.95;;;6.00;99.90;;;;;;5061991;28;20036;-83
2022/01/27 05:58:46;;;;;;;30.63;16.25;;;6.10;99.90;;;;;;5079310;28;20495;-82
2022/01/27 06:01:12;;;;;;;31.77;16.20;;;6.10;99.90;;;;;;5078657;28;20031;-82
2022/01/27 06:03:38;;;;;;;30.00;15.73;;;6.00;99.90;;;;;;5061524;28;20063;-82
2022/01/27 06:06:04;;;;;;;29.10;15.55;;;6.10;99.90;;;;;;5061593;28;20055;-83
2022/01/27 06:08:30;;;;;;;28.88;15.40;;;6.00;99.90;;;;;;5061964;28;20189;-83
2022/01/27 06:10:56;;;;;;;35.95;16.48;;;6.10;99.90;;;;;;5061733;28;20023;-83
2022/01/27 06:13:22;;;;;;;31.10;16.23;;;6.10;99.90;;;;;;5061340;28;20085;-83
2022/01/27 06:15:48;;;;;;;29.10;15.57;;;6.10;99.90;;;;;;5096135;28;20036;-82
2022/01/27 06:18:14;;;;;;;26.83;15.23;;;6.10;99.90;;;;;;5060905;28;20032;-83
2022/01/27 06:20:42;;;;;;;29.30;16.30;;;6.10;99.90;;;;;;5095786;28;20040;-82
2022/01/27 06:23:10;;;;;;;31.52;16.38;;;6.10;99.90;;;;;;5101451;28;20028;-82
2022/01/27 06:25:36;;;;;;;29.63;15.32;;;6.10;99.90;;;;;;5097012;28;20039;-83
2022/01/27 06:28:02;;;;;;;29.30;16.00;;;6.20;99.90;;;;;;5061645;28;20035;-89
2022/01/27 06:30:27;;;;;;;29.95;16.10;;;6.10;99.90;;;;;;5096076;28;20035;-86
2022/01/27 06:32:53;;;;;;;32.30;15.23;;;6.20;99.90;;;;;;5077467;28;20517;-83
2022/01/27 06:35:19;;;;;;;25.13;14.88;;;6.10;99.90;;;;;;5077734;28;20016;-83
2022/01/27 06:37:47;;;;;;;32.90;15.90;;;6.20;99.90;;;;;;5095523;28;20036;-83
2022/01/27 06:40:14;;;;;;;30.70;14.77;;;6.20;99.90;;;;;;5095630;28;20024;-84
2022/01/27 06:42:41;;;;;;;30.08;15.60;;;6.20;99.90;;;;;;5077616;28;20487;-83
2022/01/27 06:45:07;;;;;;;27.55;14.43;;;6.20;99.90;;;;;;5077545;28;20422;-83
2022/01/27 06:47:33;;;;;;;24.60;13.98;;;6.20;99.90;;;;;;5095391;28;20048;-82
2022/01/27 06:49:59;;;;;;;27.20;14.57;;;6.30;99.90;;;;;;5060893;28;20039;-82
2022/01/27 06:52:27;;;;;;;25.23;13.32;;;6.30;99.90;;;;;;5060747;28;20036;-83
2022/01/27 06:54:55;;;;;;;26.67;12.38;;;6.30;99.90;;;;;;5077957;28;20031;-83
2022/01/27 06:57:21;;;;;;;21.92;12.20;;;6.40;99.90;;;;;;5077496;28;20032;-82
2022/01/27 06:59:47;;;;;;;25.58;13.93;;;6.40;99.90;;;;;;5077486;28;20020;-82
2022/01/27 07:02:12;;;;;;;27.73;13.75;;;6.50;99.90;;;;;;5060411;28;20020;-83
2022/01/27 07:04:38;;;;;;;27.25;13.55;;;6.50;99.90;;;;;;5060825;28;20099;-83
2022/01/27 07:07:04;;;;;;;26.58;12.82;;;6.60;99.90;;;;;;5077520;28;20423;-84
2022/01/27 07:09:29;;;;;;;23.77;12.00;;;6.50;99.90;;;;;;5060160;28;20050;-83
2022/01/27 07:11:55;;;;;;;29.55;12.95;;;6.60;99.90;;;;;;5060637;28;20028;-82
2022/01/27 07:14:21;;;;;;;26.55;12.50;;;6.70;99.90;;;;;;5060223;28;20044;-82
2022/01/27 07:16:47;;;;;;;26.23;12.45;;;6.70;99.90;;;;;;5077158;28;20036;-83
2022/01/27 07:19:12;;;;;;;28.35;13.55;;;6.70;99.90;;;;;;5076546;28;20054;-82
2022/01/27 07:21:38;;;;;;;26.38;12.25;;;6.80;99.90;;;;;;5077228;28;20050;-83
2022/01/27 07:24:04;;;;;;;29.00;11.70;;;6.80;99.90;;;;;;5076981;28;20173;-83
2022/01/27 07:26:30;;;;;;;24.88;12.10;;;6.80;99.90;;;;;;5076909;28;20479;-83
2022/01/27 07:28:56;;;;;;;26.88;12.48;;;6.80;99.90;;;;;;5077255;28;20067;-83
2022/01/27 07:31:22;;;;;;;27.08;13.88;;;6.90;99.90;;;;;;5059062;28;20032;-83
2022/01/27 07:33:49;;;;;;;24.30;12.48;;;6.90;99.90;;;;;;5060027;28;20362;-84
2022/01/27 07:36:15;;;;;;;29.10;13.27;;;6.90;99.90;;;;;;5076438;28;20028;-83
2022/01/27 07:38:43;;;;;;;30.25;14.00;;;6.90;99.90;;;;;;5061509;28;20519;-82
2022/01/27 07:41:08;;;;;;;31.38;14.75;;;6.90;99.90;;;;;;5095839;28;20058;-83
2022/01/27 07:43:34;;;;;;;32.95;15.13;;;6.90;99.90;;;;;;5076686;28;20112;-82
2022/01/27 07:46:00;;;;;;;26.73;13.45;;;6.90;99.90;;;;;;5059708;28;20031;-82
2022/01/27 07:48:26;;;;;;;33.92;15.05;;;6.90;99.90;;;;;;5076354;28;20035;-82
2022/01/27 07:50:52;;;;;;;27.15;14.43;;;6.90;99.90;;;;;;5059902;28;20056;-82
2022/01/27 07:53:18;;;;;;;31.25;15.43;;;6.90;99.90;;;;;;5059096;28;20085;-83
2022/01/27 07:55:43;;;;;;;29.45;14.55;;;6.90;99.90;;;;;;5076449;28;20024;-82
2022/01/27 07:58:09;;;;;;;30.65;14.02;;;6.90;99.90;;;;;;5076238;28;20042;-83
2022/01/27 08:00:36;;;;;;;24.42;13.45;;;6.90;99.90;;;;;;5076166;28;20033;-82
2022/01/27 08:03:03;;;;;;;33.08;14.48;;;6.90;99.90;;;;;;5076284;28;20020;-82
2022/01/27 08:05:28;;;;;;;25.75;14.15;;;6.90;99.90;;;;;;5059136;28;20453;-82
2022/01/27 08:07:54;;;;;;;26.35;13.93;;;6.90;99.90;;;;;;5093961;28;20023;-82
2022/01/27 08:10:20;;;;;;;28.38;14.25;;;6.90;99.90;;;;;;5059140;28;20035;-82
2022/01/27 08:12:46;;;;;;;27.80;13.13;;;6.90;99.90;;;;;;5075552;28;20476;-82
2022/01/27 08:15:14;;;;;;;33.78;15.13;;;6.90;99.90;;;;;;5059193;28;20392;-83
2022/01/27 08:17:40;;;;;;;27.20;14.10;;;6.90;99.90;;;;;;5063723;28;20036;-82
2022/01/27 08:20:07;;;;;;;27.63;13.48;;;6.90;99.90;;;;;;5054896;28;20113;-82
2022/01/27 08:22:37;;;;;;;30.08;13.85;;;6.90;99.90;;;;;;5075604;28;20050;-82
2022/01/27 08:25:03;;;;;;;26.48;13.18;;;6.90;99.90;;;;;;5075396;28;20032;-84
2022/01/27 08:27:31;;;;;;;27.98;14.20;;;6.90;99.90;;;;;;5075444;28;20074;-82
2022/01/27 08:30:02;;;;;;;27.15;13.90;;;6.90;99.90;;;;;;5075638;28;20028;-82
2022/01/27 08:35:21;;;;;;;26.75;12.32;;;6.90;99.90;;;;;;5062100;28;20035;-82
2022/01/27 08:37:47;;;;;;;34.38;13.70;;;6.90;99.90;;;;;;5058576;28;20081;-82
2022/01/27 08:40:14;;;;;;;27.35;13.65;;;6.90;99.90;;;;;;5058960;28;20020;-82
2022/01/27 08:42:41;;;;;;;25.27;13.65;;;6.90;99.90;;;;;;5093368;28;20020;-82
2022/01/27 08:45:09;;;;;;;27.20;13.48;;;7.00;99.90;;;;;;5075172;28;20491;-83
2022/01/27 08:47:36;;;;;;;30.23;15.60;;;7.00;99.90;;;;;;5075187;28;20384;-82
2022/01/27 08:50:02;;;;;;;31.88;14.20;;;7.00;99.90;;;;;;5075628;28;20488;-82
2022/01/27 08:52:27;;;;;;;25.70;13.85;;;7.00;99.90;;;;;;5053995;28;20028;-82
2022/01/27 08:54:53;;;;;;;27.80;14.10;;;7.00;99.90;;;;;;5058335;28;20036;-83
2022/01/27 08:57:19;;;;;;;25.80;13.50;;;7.00;99.90;;;;;;5041823;28;20036;-84
2022/01/27 08:59:46;;;;;;;27.98;14.68;;;7.00;99.90;;;;;;5058647;28;20028;-83
2022/01/27 09:02:11;;;;;;;24.88;13.98;;;7.00;99.90;;;;;;5058852;28;20039;-82
2022/01/27 09:04:37;;;;;;;34.03;16.17;;;7.00;99.90;;;;;;5058671;28;20036;-82
2022/01/27 09:07:03;;;;;;;31.52;14.40;;;7.00;99.90;;;;;;5041995;28;20119;-82
2022/01/27 09:09:29;;;;;;;27.35;14.13;;;7.00;99.90;;;;;;5058529;28;20468;-82
2022/01/27 09:11:56;;;;;;;30.83;14.95;;;7.00;99.90;;;;;;5074991;28;20060;-83
2022/01/27 09:14:22;;;;;;;29.25;13.77;;;7.00;99.90;;;;;;5075064;28;20050;-82
2022/01/27 09:16:48;;;;;;;24.80;13.10;;;7.00;99.90;;;;;;5075181;28;20028;-81
2022/01/27 09:19:14;;;;;;;30.30;14.30;;;7.10;99.90;;;;;;5092503;28;20101;-81
2022/01/27 09:21:44;;;;;;;26.90;14.15;;;7.00;99.90;;;;;;5058352;28;20043;-82
2022/01/27 09:24:14;;;;;;;31.30;14.80;;;7.10;99.90;;;;;;5074678;28;20039;-82
2022/01/27 09:29:14;;;;;;;29.75;13.95;;;7.10;99.90;;;;;;5093085;28;20040;-82
2022/01/27 09:31:40;;;;;;;25.15;12.93;;;7.10;99.90;;;;;;5058187;28;20077;-82
2022/01/27 09:34:05;;;;;;;22.70;12.40;;;7.10;99.90;;;;;;5075098;28;20028;-83
2022/01/27 09:36:31;;;;;;;25.60;12.93;;;7.10;99.90;;;;;;5058092;28;20037;-83
2022/01/27 09:38:57;;;;;;;23.80;12.50;;;7.10;99.90;;;;;;5041629;28;20488;-82
2022/01/27 09:41:24;;;;;;;23.77;12.00;;;7.20;99.90;;;;;;5074628;28;20028;-82
2022/01/27 09:43:53;;;;;;;23.55;13.05;;;7.20;99.90;;;;;;5058268;28;20040;-81
2022/01/27 09:46:20;;;;;;;23.85;13.95;;;7.10;99.90;;;;;;5075502;28;20377;-81
2022/01/27 09:48:48;;;;;;;23.50;12.27;;;7.20;99.90;;;;;;5065283;28;20116;-82
2022/01/27 09:53:52;;;;;;;22.75;11.82;;;7.20;99.90;;;;;;5060996;28;20038;-82
2022/01/27 09:56:19;;;;;;;19.42;10.63;;;7.20;99.90;;;;;;5058239;28;20071;-82
2022/01/27 09:58:44;;;;;;;21.00;11.38;;;7.20;99.90;;;;;;5058394;28;20051;-82
2022/01/27 10:01:10;;;;;;;20.10;11.45;;;7.20;99.90;;;;;;5058511;28;20527;-83
2022/01/27 10:03:56;;;;;;;22.35;12.07;;;7.20;99.90;;;;;;5058656;28;20020;-82
2022/01/27 10:06:26;;;;;;;20.23;11.68;;;7.30;99.90;;;;;;5076077;28;20024;-81
2022/01/27 10:09:14;;;;;;;26.20;13.43;;;7.30;99.90;;;;;;5059669;28;20027;-82
2022/01/27 10:11:42;;;;;;;18.77;11.27;;;7.30;99.90;;;;;;5050801;28;20039;-82
2022/01/27 10:14:25;;;;;;;28.08;13.48;;;7.30;99.90;;;;;;5041601;28;20119;-82
2022/01/27 10:16:54;;;;;;;23.50;12.45;;;7.30;99.90;;;;;;5076379;28;20025;-82
2022/01/27 10:19:20;;;;;;;26.38;12.15;;;7.30;99.90;;;;;;5057699;28;20020;-82
2022/01/27 10:21:47;;;;;;;23.25;10.98;;;7.30;99.90;;;;;;5041164;28;20045;-82
2022/01/27 10:24:24;;;;;;;20.02;12.15;;;7.30;99.90;;;;;;5076144;28;20205;-82
2022/01/27 10:27:17;;;;;;;24.83;12.13;;;7.40;99.90;;;;;;5058037;28;20040;-84
2022/01/27 10:30:36;;;;;;;20.77;11.57;;;7.40;99.90;;;;;;5057932;28;20024;-82
2022/01/27 10:32:41;;;;;;;19.17;10.30;;;7.40;99.90;;;;;;5064764;28;20159;-83
2022/01/27 10:35:09;;;;;;;19.10;10.77;;;7.40;99.90;;;;;;5057994;28;20023;-82
2022/01/27 10:38:00;;;;;;;19.08;9.40;;;7.50;99.90;;;;;;5057489;28;20055;-83
2022/01/27 10:40:49;;;;;;;19.58;10.00;;;7.50;99.90;;;;;;5044182;28;20037;-85
2022/01/27 10:43:24;;;;;;;14.43;9.32;;;7.50;99.90;;;;;;5057295;28;20032;-83
2022/01/27 10:46:14;;;;;;;14.63;8.63;;;7.50;99.90;;;;;;5075385;28;20027;-82
2022/01/27 10:48:45;;;;;;;18.58;10.63;;;7.60;99.90;;;;;;5057560;28;20020;-82
2022/01/27 10:51:23;;;;;;;17.17;9.73;;;7.50;99.90;;;;;;5075795;28;20373;-81
2022/01/27 10:53:56;;;;;;;15.82;9.27;;;7.60;99.90;;;;;;5057577;28;20024;-81
2022/01/27 10:56:25;;;;;;;20.42;10.40;;;7.60;99.90;;;;;;5057657;28;20465;-82
2022/01/27 10:58:51;;;;;;;21.30;11.00;;;7.60;99.90;;;;;;5059235;28;20024;-82
2022/01/27 11:01:25;;;;;;;20.95;11.20;;;7.60;99.90;;;;;;5083755;28;20028;-81
2022/01/27 11:03:53;;;;;;;21.67;11.32;;;7.70;99.90;;;;;;5065921;28;20119;-82
2022/01/27 11:06:23;;;;;;;18.80;10.27;;;7.70;99.90;;;;;;5063510;28;20029;-82
2022/01/27 11:08:49;;;;;;;23.05;12.07;;;7.70;99.90;;;;;;5062968;28;20112;-82
2022/01/27 11:11:14;;;;;;;24.60;11.70;;;7.70;99.90;;;;;;5078436;28;20052;-82
2022/01/27 11:13:43;;;;;;;22.42;11.88;;;7.80;99.90;;;;;;5058244;28;20052;-82
2022/01/27 11:16:13;;;;;;;21.52;12.45;;;7.80;99.90;;;;;;5040766;28;20036;-82
2022/01/27 11:18:39;;;;;;;26.45;12.35;;;7.80;99.90;;;;;;5040759;28;20059;-82
2022/01/27 11:21:12;;;;;;;25.27;13.48;;;7.90;99.90;;;;;;5056863;28;20052;-83
2022/01/27 11:26:09;;;;;;;26.60;13.02;;;7.90;99.90;;;;;;5074487;28;20039;-83
2022/01/27 11:28:35;;;;;;;23.88;13.35;;;7.90;99.90;;;;;;5056558;28;20029;-83
2022/01/27 11:31:25;;;;;;;23.90;12.02;;;7.90;99.90;;;;;;5074480;28;20021;-83
2022/01/27 11:34:03;;;;;;;23.55;11.45;;;8.00;99.90;;;;;;5074437;28;20025;-82
2022/01/27 11:36:29;;;;;;;30.70;13.25;;;8.00;99.90;;;;;;5074735;28;20469;-82
2022/01/27 11:38:57;;;;;;;28.02;12.30;;;8.00;99.90;;;;;;5039961;28;20016;-82
2022/01/27 11:41:43;;;;;;;33.45;13.30;;;8.00;99.90;;;;;;5074185;28;20052;-85
2022/01/27 11:44:29;;;;;;;25.67;12.57;;;8.10;99.90;;;;;;5075032;28;20064;-82
2022/01/27 11:50:06;;;;;;;30.55;13.43;;;8.10;99.90;;;;;;5074264;28;20082;-82
2022/01/27 11:52:47;;;;;;;27.48;13.75;;;8.10;99.90;;;;;;5056301;28;20024;-83
2022/01/27 11:55:25;;;;;;;24.23;12.85;;;8.10;99.90;;;;;;5074268;28;20026;-82
2022/01/27 11:58:23;;;;;;;34.38;14.82;;;8.20;99.90;;;;;;5074009;28;20123;-82
2022/01/27 12:01:16;;;;;;;31.80;14.23;;;8.20;99.90;;;;;;5056088;28;20042;-82
2022/01/27 12:04:07;;;;;;;31.20;13.68;;;8.20;99.90;;;;;;5073966;28;20020;-82
2022/01/27 12:06:39;;;;;;;29.73;14.13;;;8.20;99.90;;;;;;5055969;28;20025;-91
2022/01/27 12:09:17;;;;;;;34.42;14.38;;;8.20;99.90;;;;;;5074083;28;20055;-82
2022/01/27 12:11:49;;;;;;;26.60;12.95;;;8.30;99.90;;;;;;5073981;28;20035;-81
2022/01/27 12:14:21;;;;;;;32.80;15.30;;;8.20;99.90;;;;;;5055999;28;20020;-82
2022/01/27 12:17:09;;;;;;;29.33;14.75;;;8.30;99.90;;;;;;5073380;28;20032;-82
2022/01/27 12:19:53;;;;;;;27.67;13.57;;;8.30;99.90;;;;;;5073374;28;20021;-83
2022/01/27 12:22:39;;;;;;;29.35;13.23;;;8.30;99.90;;;;;;5072486;28;20025;-82
2022/01/27 12:25:06;;;;;;;25.83;14.07;;;8.30;99.90;;;;;;5073740;28;20107;-82
2022/01/27 12:27:32;;;;;;;26.40;12.73;;;8.40;99.90;;;;;;5056138;28;20036;-81
2022/01/27 12:29:59;;;;;;;26.95;14.00;;;8.40;99.90;;;;;;5073481;28;20025;-82
2022/01/27 12:32:28;;;;;;;29.25;13.48;;;8.40;99.90;;;;;;5055361;28;20024;-82
2022/01/27 12:34:54;;;;;;;35.28;14.75;;;8.40;99.90;;;;;;5073682;28;20346;-82
2022/01/27 12:37:23;;;;;;;35.13;14.32;;;8.40;99.90;;;;;;5073422;28;20077;-82
2022/01/27 12:39:56;;;;;;;29.27;15.25;;;8.40;99.90;;;;;;5055428;28;20021;-82
2022/01/27 12:42:27;;;;;;;32.03;15.02;;;8.40;99.90;;;;;;5073464;28;20048;-82
2022/01/27 12:44:58;;;;;;;30.85;14.15;;;8.40;99.90;;;;;;5038984;28;20037;-82
2022/01/27 12:47:25;;;;;;;29.77;13.63;;;8.40;99.90;;;;;;5072204;28;20029;-81
2022/01/27 12:50:03;;;;;;;27.63;14.18;;;8.40;99.90;;;;;;5072963;28;20495;-82
2022/01/27 12:52:31;;;;;;;28.20;13.60;;;8.50;99.90;;;;;;5055358;28;20090;-82
2022/01/27 12:54:57;;;;;;;28.33;15.23;;;8.50;99.90;;;;;;5073471;28;20018;-81
2022/01/27 12:57:32;;;;;;;31.90;14.48;;;8.50;99.90;;;;;;5055105;28;20123;-82
2022/01/27 12:59:58;;;;;;;34.55;13.95;;;8.50;99.90;;;;;;5055739;28;20491;-82
2022/01/27 13:02:25;;;;;;;26.40;15.75;;;8.50;99.90;;;;;;5038959;28;20025;-81
2022/01/27 13:04:56;;;;;;;32.50;16.33;;;8.60;99.90;;;;;;5073866;28;20372;-82
2022/01/27 13:07:23;;;;;;;31.20;15.27;;;8.50;99.90;;;;;;5073531;28;20043;-82
2022/01/27 13:09:53;;;;;;;32.70;16.13;;;8.60;99.90;;;;;;5055172;28;20475;-82
2022/01/27 13:12:23;;;;;;;32.20;14.93;;;8.60;99.90;;;;;;5038959;28;20037;-82
2022/01/27 13:15:07;;;;;;;27.60;14.70;;;8.60;99.90;;;;;;5056388;28;20373;-82
2022/01/27 13:23:05;;;;;;;25.30;13.45;;;8.70;99.90;;;;;;5073344;28;20028;-82
2022/01/27 13:25:42;;;;;;;32.60;14.43;;;8.70;99.90;;;;;;5073417;28;20028;-83
2022/01/27 13:28:16;;;;;;;29.02;13.98;;;8.80;99.90;;;;;;5078847;28;20094;-82
2022/01/27 13:30:42;;;;;;;29.52;12.52;;;8.70;99.90;;;;;;5085617;28;20020;-89
2022/01/27 13:33:12;;;;;;;31.52;13.18;;;8.80;99.90;;;;;;5046790;28;20032;-82
2022/01/27 13:35:37;;;;;;;32.42;12.85;;;8.80;99.90;;;;;;5083747;28;20158;-82
2022/01/27 13:38:25;;;;;;;29.98;12.65;;;8.80;99.90;;;;;;5097138;28;20543;-81
2022/01/27 13:41:25;;;;;;;25.17;11.82;;;8.90;99.90;;;;;;5097313;28;20027;-82
2022/01/27 13:43:59;;;;;;;27.45;11.13;;;8.90;99.90;;;;;;5078901;28;20116;-82